Time;durP1;ratioP1;P1;durP2;ratioP2;P2;SDS_P1;SDS_P2;PMS_P1;PMS_P2;Temp;Humidity;BMP_temperature;BMP_pressure;BME280_temperature;BME280_humidity;BME280_pressure;Samples;Min_cycle;Max_cycle;Signal;HPM_P1;HPM_P2
2022/02/11 00:08:20;;;;;;;1.15;0.60;;;18.30;61.20;;;;;;4997472;28;20049;-65
2022/02/11 00:10:46;;;;;;;1.20;0.63;;;18.40;61.30;;;;;;5013206;28;20018;-65
2022/02/11 00:13:12;;;;;;;0.80;0.70;;;18.40;61.20;;;;;;5012331;28;20030;-65
2022/02/11 00:18:06;;;;;;;0.88;0.45;;;18.30;61.20;;;;;;5012773;28;20056;-65
2022/02/11 00:20:32;;;;;;;1.20;0.73;;;18.40;61.30;;;;;;5013161;28;20026;-65
2022/02/11 00:22:57;;;;;;;0.50;0.50;;;18.40;61.20;;;;;;5013138;28;20451;-65
2022/02/11 00:25:23;;;;;;;0.95;0.70;;;18.40;61.20;;;;;;5013211;28;20028;-65
2022/02/11 00:37:58;;;;;;;0.70;0.60;;;18.40;61.30;;;;;;5013052;28;20022;-65
2022/02/11 00:46:02;;;;;;;0.77;0.60;;;18.40;61.40;;;;;;5012797;28;20040;-65
2022/02/11 01:02:19;;;;;;;0.82;0.60;;;18.30;61.40;;;;;;5029162;28;20039;-65
2022/02/11 01:04:46;;;;;;;1.30;0.80;;;18.30;61.50;;;;;;5028770;28;20108;-65
2022/02/11 01:07:11;;;;;;;0.63;0.63;;;18.30;61.50;;;;;;5012489;28;20075;-65
2022/02/11 01:09:39;;;;;;;1.05;0.80;;;18.30;61.50;;;;;;5030084;28;20029;-65
2022/02/11 01:12:06;;;;;;;1.05;0.82;;;18.30;61.40;;;;;;5030230;28;20023;-65
2022/02/11 01:14:38;;;;;;;1.00;0.88;;;18.30;61.40;;;;;;5029851;28;20056;-64
2022/02/11 01:27:26;;;;;;;1.17;0.80;;;18.30;61.40;;;;;;5032419;28;20503;-64
2022/02/11 01:38:02;;;;;;;0.60;0.60;;;18.30;61.50;;;;;;5031963;28;20021;-64
2022/02/11 01:45:36;;;;;;;0.60;0.60;;;18.30;61.50;;;;;;5031772;28;20392;-64
2022/02/11 01:53:32;;;;;;;1.95;1.08;;;18.20;61.60;;;;;;5034895;28;20033;-65
2022/02/11 01:56:10;;;;;;;0.77;0.63;;;18.20;61.60;;;;;;5035711;28;20044;-65
2022/02/11 02:22:44;;;;;;;1.23;0.90;;;18.10;61.70;;;;;;5035055;28;20453;-64
2022/02/11 02:33:24;;;;;;;1.23;0.90;;;18.10;61.70;;;;;;5034922;28;20137;-64
2022/02/11 02:57:28;;;;;;;0.98;0.57;;;18.00;61.90;;;;;;5019686;28;20084;-64
2022/02/11 03:49:28;;;;;;;0.77;0.70;;;17.70;62.00;;;;;;4859225;29;20082;-64
2022/02/11 04:56:13;;;;;;;0.47;0.47;;;17.50;62.30;;;;;;4971293;28;20027;-64
2022/02/11 05:01:22;;;;;;;0.70;0.70;;;17.50;62.30;;;;;;4971506;28;20038;-64
2022/02/11 05:03:48;;;;;;;0.88;0.70;;;17.50;62.40;;;;;;4971600;28;20039;-64
2022/02/11 05:06:13;;;;;;;1.52;0.88;;;17.50;62.40;;;;;;4971315;28;20037;-64
2022/02/11 05:08:39;;;;;;;1.02;0.60;;;17.50;62.40;;;;;;4971222;28;20514;-64
2022/02/11 05:11:09;;;;;;;0.90;0.63;;;17.50;62.30;;;;;;4971245;28;20112;-64
2022/02/11 05:13:36;;;;;;;0.50;0.50;;;17.50;62.30;;;;;;4971310;28;20031;-64
2022/02/11 05:16:02;;;;;;;1.95;0.60;;;17.50;62.40;;;;;;4971072;28;20058;-64
2022/02/11 05:18:28;;;;;;;1.40;1.02;;;17.50;62.30;;;;;;4957516;28;20035;-64
2022/02/11 05:20:54;;;;;;;0.63;0.63;;;17.50;62.40;;;;;;4951744;29;20043;-64
2022/02/11 05:23:19;;;;;;;2.33;0.65;;;17.40;62.30;;;;;;4951881;29;20618;-64
2022/02/11 05:25:45;;;;;;;1.77;0.60;;;17.40;63.30;;;;;;4951954;28;20031;-64
2022/02/11 05:28:13;;;;;;;1.63;0.60;;;17.40;62.30;;;;;;4954956;29;20110;-64
2022/02/11 05:30:40;;;;;;;0.73;0.60;;;17.40;62.30;;;;;;4956049;29;20045;-64
2022/02/11 05:33:06;;;;;;;0.65;0.60;;;17.40;62.30;;;;;;4988221;28;20034;-64
2022/02/11 05:35:32;;;;;;;1.25;0.70;;;17.40;62.30;;;;;;5016325;28;20057;-64
2022/02/11 05:37:57;;;;;;;0.88;0.65;;;17.40;62.30;;;;;;5015893;28;20032;-65
2022/02/11 05:40:23;;;;;;;0.50;0.50;;;17.40;62.80;;;;;;4998772;28;20037;-65
2022/02/11 05:42:49;;;;;;;0.73;0.50;;;17.40;62.30;;;;;;5016003;28;20026;-64
2022/02/11 05:45:15;;;;;;;0.60;0.60;;;17.40;62.40;;;;;;5016080;28;20484;-64
2022/02/11 05:47:40;;;;;;;0.80;0.55;;;17.40;62.40;;;;;;4998440;28;20041;-64
2022/02/11 05:50:06;;;;;;;1.05;0.70;;;17.40;62.40;;;;;;5015854;28;20433;-64
2022/02/11 05:52:33;;;;;;;0.80;0.50;;;17.40;62.40;;;;;;5006759;28;20040;-64
2022/02/11 05:54:58;;;;;;;0.88;0.60;;;17.40;62.40;;;;;;5035512;28;20519;-65
2022/02/11 05:57:24;;;;;;;1.42;0.70;;;17.40;62.30;;;;;;5018089;28;20033;-64
2022/02/11 05:59:50;;;;;;;0.90;0.50;;;17.30;62.40;;;;;;5035518;28;20491;-64
2022/02/11 06:02:16;;;;;;;0.65;0.60;;;17.40;62.30;;;;;;5035473;28;20488;-64
2022/02/11 06:04:41;;;;;;;0.93;0.60;;;17.30;62.40;;;;;;5017902;28;20033;-64
2022/02/11 06:07:07;;;;;;;0.50;0.50;;;17.30;62.40;;;;;;5035053;28;20021;-64
2022/02/11 06:09:33;;;;;;;0.80;0.70;;;17.30;62.40;;;;;;5035281;28;20075;-64
2022/02/11 06:11:58;;;;;;;1.60;0.70;;;17.30;62.40;;;;;;5035112;28;20041;-64
2022/02/11 06:14:24;;;;;;;1.05;0.68;;;17.30;62.40;;;;;;5035429;28;20021;-64
2022/02/11 06:16:50;;;;;;;0.60;0.60;;;17.30;62.40;;;;;;5034227;28;20100;-64
2022/02/11 06:19:15;;;;;;;0.93;0.60;;;17.30;62.40;;;;;;5015305;28;20030;-64
2022/02/11 06:21:41;;;;;;;0.98;0.75;;;17.20;62.30;;;;;;5015037;28;20512;-64
2022/02/11 06:24:06;;;;;;;0.60;0.60;;;17.30;62.40;;;;;;5015183;28;20117;-64
2022/02/11 06:26:33;;;;;;;1.17;0.77;;;17.30;62.40;;;;;;5015419;28;20102;-64
2022/02/11 06:28:58;;;;;;;0.70;0.52;;;17.20;62.40;;;;;;5015098;28;20072;-64
2022/02/11 06:31:24;;;;;;;0.50;0.50;;;17.30;62.50;;;;;;5015042;28;20021;-64
2022/02/11 06:33:50;;;;;;;0.98;0.55;;;17.20;62.40;;;;;;5015358;28;20025;-64
2022/02/11 06:36:16;;;;;;;1.00;0.65;;;17.20;62.40;;;;;;5014685;28;20481;-64
2022/02/11 06:38:41;;;;;;;0.70;0.52;;;17.20;62.40;;;;;;5015060;28;20037;-64
2022/02/11 06:41:07;;;;;;;0.52;0.50;;;17.20;62.40;;;;;;5014971;28;20029;-64
2022/02/11 06:43:33;;;;;;;0.70;0.50;;;17.20;62.40;;;;;;5014936;28;20030;-64
2022/02/11 06:45:59;;;;;;;0.70;0.65;;;17.20;62.50;;;;;;5014776;28;20022;-64
2022/02/11 06:48:25;;;;;;;1.35;0.73;;;17.20;62.50;;;;;;5025632;28;20033;-64
2022/02/11 06:50:53;;;;;;;0.93;0.63;;;17.20;62.50;;;;;;5021682;28;20022;-64
2022/02/11 06:53:19;;;;;;;0.50;0.50;;;17.20;62.50;;;;;;5020353;28;20022;-64
2022/02/11 06:55:45;;;;;;;0.50;0.50;;;17.10;62.50;;;;;;5023500;28;20017;-64
2022/02/11 06:58:10;;;;;;;1.02;0.60;;;17.20;62.50;;;;;;5005684;28;20037;-64
2022/02/11 07:00:40;;;;;;;0.70;0.50;;;17.20;62.60;;;;;;5023414;28;20010;-64
2022/02/11 07:03:05;;;;;;;0.50;0.50;;;17.20;62.60;;;;;;5006087;28;20022;-64
2022/02/11 07:05:34;;;;;;;0.57;0.50;;;17.20;62.60;;;;;;5008819;28;20014;-64
2022/02/11 07:07:59;;;;;;;0.50;0.50;;;17.20;62.60;;;;;;5023767;28;20079;-64
2022/02/11 07:10:25;;;;;;;0.45;0.40;;;17.20;62.60;;;;;;5022728;28;20026;-64
2022/02/11 07:12:51;;;;;;;0.98;0.50;;;17.20;62.60;;;;;;5022843;28;20024;-64
2022/02/11 07:15:16;;;;;;;1.48;0.47;;;17.10;62.50;;;;;;5022012;28;20041;-64
2022/02/11 07:17:42;;;;;;;0.50;0.50;;;17.10;62.50;;;;;;5023096;28;20025;-64
2022/02/11 07:20:08;;;;;;;0.77;0.60;;;17.10;62.50;;;;;;5023085;28;20021;-64
2022/02/11 07:22:34;;;;;;;0.82;0.45;;;17.10;62.50;;;;;;5023387;28;20109;-64
2022/02/11 07:25:03;;;;;;;0.55;0.55;;;17.10;62.50;;;;;;5022455;28;20109;-64
2022/02/11 07:27:29;;;;;;;0.65;0.55;;;17.10;62.50;;;;;;5022446;28;20025;-64
2022/02/11 07:29:55;;;;;;;0.90;0.52;;;17.10;62.40;;;;;;5022621;28;20488;-64
2022/02/11 07:32:20;;;;;;;0.85;0.60;;;17.10;62.40;;;;;;5023466;28;20018;-64
2022/02/11 07:34:46;;;;;;;1.15;0.60;;;17.10;62.40;;;;;;5021505;28;20061;-65
2022/02/11 07:37:11;;;;;;;3.03;0.70;;;17.10;62.40;;;;;;5022990;28;20502;-64
2022/02/11 07:39:37;;;;;;;5.95;0.90;;;17.10;62.40;;;;;;5017526;28;20084;-64
2022/02/11 07:42:03;;;;;;;1.95;0.90;;;17.10;62.40;;;;;;5013799;28;20057;-64
2022/02/11 07:44:29;;;;;;;2.53;0.68;;;17.00;62.40;;;;;;5012979;28;20484;-64
2022/02/11 07:46:54;;;;;;;4.03;0.93;;;17.10;62.50;;;;;;5013812;28;20029;-64
2022/02/11 07:49:20;;;;;;;2.00;0.73;;;17.10;62.50;;;;;;5012513;28;20026;-64
2022/02/11 07:51:46;;;;;;;1.85;0.88;;;17.10;62.50;;;;;;5016209;28;20018;-64
2022/02/11 07:54:12;;;;;;;1.48;0.85;;;17.10;62.50;;;;;;5033365;28;20546;-64
2022/02/11 07:56:38;;;;;;;3.75;0.90;;;17.10;62.50;;;;;;5033284;28;20109;-64
2022/02/11 07:59:04;;;;;;;5.03;1.00;;;17.10;62.60;;;;;;5033238;28;20403;-64
2022/02/11 08:01:29;;;;;;;1.98;0.90;;;17.10;62.50;;;;;;5033119;28;20025;-64
2022/02/11 08:03:56;;;;;;;3.63;1.00;;;17.10;62.50;;;;;;5025176;28;20026;-64
2022/02/11 08:06:21;;;;;;;2.20;0.90;;;17.10;62.50;;;;;;5016825;28;20037;-64
2022/02/11 08:08:47;;;;;;;2.20;0.60;;;17.10;62.50;;;;;;5031688;28;20025;-64
2022/02/11 08:11:13;;;;;;;3.92;0.93;;;17.10;62.50;;;;;;5029704;28;20018;-64
2022/02/11 08:13:38;;;;;;;2.63;0.85;;;17.00;62.50;;;;;;5013272;28;20507;-64
2022/02/11 08:16:05;;;;;;;1.60;0.70;;;17.00;62.50;;;;;;5013064;28;20045;-64
2022/02/11 08:18:31;;;;;;;1.80;0.70;;;17.10;62.50;;;;;;5011902;28;20026;-64
2022/02/11 08:20:56;;;;;;;3.08;0.90;;;17.00;62.50;;;;;;5026334;28;20035;-64
2022/02/11 08:23:24;;;;;;;2.10;0.85;;;17.00;62.50;;;;;;5032993;28;20067;-64
2022/02/11 08:25:49;;;;;;;1.60;1.08;;;17.00;62.50;;;;;;5033065;28;20017;-64
2022/02/11 08:28:15;;;;;;;1.17;0.90;;;17.00;62.50;;;;;;5032787;28;20026;-64
2022/02/11 08:30:42;;;;;;;2.08;0.93;;;17.00;62.50;;;;;;5032921;28;20021;-64
2022/02/11 08:33:08;;;;;;;1.63;0.82;;;17.00;62.50;;;;;;5032494;28;20520;-64
2022/02/11 08:35:33;;;;;;;3.75;0.98;;;17.00;62.50;;;;;;5032714;28;20021;-64
2022/02/11 08:37:59;;;;;;;4.30;1.15;;;17.00;62.50;;;;;;5019599;28;20124;-64
2022/02/11 08:40:24;;;;;;;1.80;0.77;;;17.00;62.50;;;;;;5011846;28;20450;-64
2022/02/11 08:42:51;;;;;;;1.95;1.20;;;17.00;62.50;;;;;;5012941;28;20040;-64
2022/02/11 08:45:17;;;;;;;3.28;1.00;;;17.00;62.50;;;;;;5012891;28;20022;-64
2022/02/11 08:47:42;;;;;;;1.13;0.82;;;17.00;62.50;;;;;;5011457;28;20079;-64
2022/02/11 08:50:14;;;;;;;2.65;0.80;;;17.00;62.50;;;;;;5012624;28;20443;-64
2022/02/11 08:52:40;;;;;;;4.82;1.25;;;17.00;62.40;;;;;;5022751;28;20435;-64
2022/02/11 08:55:06;;;;;;;3.50;1.00;;;17.00;62.50;;;;;;5032429;28;20018;-64
2022/02/11 08:57:32;;;;;;;4.90;1.50;;;16.90;62.40;;;;;;5032323;28;20025;-64
2022/02/11 08:59:58;;;;;;;2.58;0.95;;;16.90;62.40;;;;;;5032595;28;20108;-64
2022/02/11 09:02:24;;;;;;;2.38;0.93;;;16.90;62.40;;;;;;5031447;28;20028;-64
2022/02/11 09:04:51;;;;;;;1.23;0.90;;;16.90;62.40;;;;;;5032380;28;20029;-64
2022/02/11 09:07:18;;;;;;;1.77;0.85;;;16.90;62.40;;;;;;5032254;28;20029;-64
2022/02/11 09:09:44;;;;;;;2.95;1.05;;;16.90;62.40;;;;;;5032086;28;20030;-64
2022/02/11 09:12:09;;;;;;;2.03;1.00;;;16.90;62.30;;;;;;5032106;28;20100;-64
2022/02/11 09:14:35;;;;;;;2.83;1.08;;;16.90;62.30;;;;;;5031988;28;20077;-64
2022/02/11 09:17:00;;;;;;;1.95;1.05;;;16.90;62.30;;;;;;5032115;28;20057;-64
2022/02/11 09:19:26;;;;;;;0.95;0.73;;;16.90;62.30;;;;;;5031923;28;20029;-64
2022/02/11 09:21:52;;;;;;;1.73;1.02;;;16.90;62.30;;;;;;5032372;28;20029;-64
2022/02/11 09:24:17;;;;;;;1.17;0.80;;;16.90;62.40;;;;;;5032149;28;20025;-64
2022/02/11 09:26:43;;;;;;;1.38;0.95;;;16.90;62.30;;;;;;5032216;28;20040;-64
2022/02/11 09:29:09;;;;;;;2.75;1.40;;;16.90;62.30;;;;;;5031737;28;20037;-64
2022/02/11 09:31:34;;;;;;;1.00;0.90;;;16.90;62.30;;;;;;5031936;28;20101;-64
2022/02/11 09:34:04;;;;;;;1.77;1.02;;;16.90;62.30;;;;;;5032258;28;20013;-64
2022/02/11 09:36:34;;;;;;;1.05;0.75;;;16.90;62.30;;;;;;5032093;28;20025;-64
2022/02/11 09:39:03;;;;;;;1.30;0.80;;;16.90;62.40;;;;;;5032005;28;20049;-64
2022/02/11 09:41:29;;;;;;;3.05;1.00;;;16.90;63.40;;;;;;5031823;28;20026;-64
2022/02/11 09:43:55;;;;;;;1.75;0.95;;;16.90;62.30;;;;;;5014214;28;20033;-64
2022/02/11 09:46:21;;;;;;;1.88;0.80;;;16.90;62.40;;;;;;5031828;28;20155;-64
2022/02/11 09:48:47;;;;;;;2.78;1.33;;;16.90;62.30;;;;;;5031816;28;20109;-64
2022/02/11 09:51:12;;;;;;;1.45;0.90;;;16.90;62.30;;;;;;5032085;28;20057;-64
2022/02/11 09:53:38;;;;;;;2.05;0.95;;;16.80;62.20;;;;;;5031729;28;20026;-64
2022/02/11 09:56:04;;;;;;;2.65;0.80;;;16.80;62.20;;;;;;5031904;28;20026;-64
2022/02/11 09:58:30;;;;;;;1.25;0.60;;;16.80;62.30;;;;;;5031367;28;20029;-64
2022/02/11 10:00:56;;;;;;;4.68;1.17;;;16.80;62.20;;;;;;5031808;28;20437;-64
2022/02/11 10:03:31;;;;;;;1.45;0.80;;;16.90;62.30;;;;;;5031789;28;20026;-64
2022/02/11 10:05:58;;;;;;;1.30;0.90;;;16.90;62.20;;;;;;5014384;28;20029;-64
2022/02/11 10:08:25;;;;;;;0.70;0.60;;;16.80;62.20;;;;;;5031516;28;20021;-64
2022/02/11 10:10:55;;;;;;;1.65;0.80;;;16.80;62.20;;;;;;5031730;28;20053;-64
2022/02/11 10:13:25;;;;;;;0.80;0.70;;;16.80;62.20;;;;;;5032971;28;20024;-64
2022/02/11 10:15:54;;;;;;;1.60;0.68;;;16.80;62.30;;;;;;5035016;28;20045;-64
2022/02/11 10:18:24;;;;;;;3.08;0.90;;;16.80;62.20;;;;;;5035219;28;20049;-64
2022/02/11 10:20:53;;;;;;;1.30;0.80;;;16.80;62.20;;;;;;5018296;28;20032;-64
2022/02/11 10:23:36;;;;;;;0.93;0.68;;;16.80;62.20;;;;;;5018034;28;20014;-64
2022/02/11 10:26:06;;;;;;;1.02;0.88;;;16.80;62.20;;;;;;5035295;28;20106;-64
2022/02/11 10:28:37;;;;;;;1.20;0.60;;;16.80;62.20;;;;;;5034603;28;20487;-64
2022/02/11 10:31:07;;;;;;;1.00;0.80;;;16.80;62.20;;;;;;5035115;28;20033;-64
2022/02/11 10:33:51;;;;;;;1.00;0.70;;;16.80;62.20;;;;;;5034708;28;20032;-64
2022/02/11 10:36:21;;;;;;;1.58;0.90;;;16.80;62.20;;;;;;5034902;28;20399;-64
2022/02/11 10:38:46;;;;;;;1.45;0.70;;;16.80;62.20;;;;;;5035107;28;20025;-64
2022/02/11 10:41:19;;;;;;;0.82;0.70;;;16.80;62.30;;;;;;5016932;28;20108;-64
2022/02/11 10:43:48;;;;;;;;;;;16.80;62.20;;;;;;5017995;28;20045;-64
2022/02/11 10:46:16;;;;;;;3.40;0.63;;;16.70;63.20;;;;;;5034811;28;19905;-64
2022/02/11 10:48:42;;;;;;;2.38;0.77;;;16.70;62.40;;;;;;5017025;28;20034;-64
2022/02/11 10:51:08;;;;;;;1.38;0.73;;;16.70;62.40;;;;;;5017354;28;20403;-64
2022/02/11 10:53:39;;;;;;;1.80;0.70;;;16.70;62.30;;;;;;5016609;28;20510;-64
2022/02/11 10:56:05;;;;;;;0.68;0.57;;;16.70;62.30;;;;;;5034051;28;20025;-64
2022/02/11 10:58:32;;;;;;;1.05;0.80;;;16.70;62.20;;;;;;5034471;28;20026;-64
2022/02/11 11:01:01;;;;;;;1.52;0.82;;;16.70;62.20;;;;;;5017147;28;20017;-64
2022/02/11 11:03:33;;;;;;;0.65;0.60;;;16.70;62.20;;;;;;5016993;28;20446;-64
2022/02/11 11:06:04;;;;;;;1.35;0.63;;;16.70;62.20;;;;;;5034367;28;20480;-64
2022/02/11 11:08:30;;;;;;;1.77;0.80;;;16.80;62.30;;;;;;5017467;28;20123;-64
2022/02/11 11:10:56;;;;;;;1.25;0.85;;;16.70;62.20;;;;;;5016175;28;20499;-64
2022/02/11 11:13:21;;;;;;;0.82;0.70;;;16.70;62.20;;;;;;5034249;28;20025;-64
2022/02/11 11:15:47;;;;;;;1.25;0.82;;;16.80;62.20;;;;;;5016585;28;20049;-64
2022/02/11 11:18:15;;;;;;;0.68;0.60;;;16.70;62.20;;;;;;5016662;28;20032;-64
2022/02/11 11:20:41;;;;;;;1.30;0.80;;;16.70;62.10;;;;;;5016616;28;20032;-64
2022/02/11 11:23:27;;;;;;;1.33;1.02;;;16.70;62.10;;;;;;5034180;28;20033;-64
2022/02/11 11:26:01;;;;;;;0.88;0.70;;;16.80;62.10;;;;;;5032835;28;20021;-64
2022/02/11 11:28:46;;;;;;;1.08;0.75;;;16.70;62.20;;;;;;5033869;28;20053;-64
2022/02/11 11:31:24;;;;;;;1.38;0.93;;;16.80;62.10;;;;;;5034101;28;20028;-64
2022/02/11 11:33:51;;;;;;;1.08;0.80;;;16.80;62.20;;;;;;5016166;28;20029;-64
2022/02/11 11:36:18;;;;;;;0.93;0.50;;;16.70;62.20;;;;;;5034086;28;20022;-64
2022/02/11 11:38:48;;;;;;;0.80;0.70;;;16.70;62.20;;;;;;5016201;28;20034;-64
2022/02/11 11:41:15;;;;;;;1.33;0.90;;;16.70;62.20;;;;;;5033499;28;20030;-64
2022/02/11 11:43:44;;;;;;;1.30;0.70;;;16.70;62.10;;;;;;5033541;28;20042;-64
2022/02/11 11:46:16;;;;;;;1.52;0.85;;;16.80;62.20;;;;;;5033597;28;20033;-64
2022/02/11 11:49:07;;;;;;;1.52;0.65;;;16.80;62.20;;;;;;5033573;28;20484;-64
2022/02/11 11:51:36;;;;;;;0.98;0.70;;;16.80;62.10;;;;;;5033272;28;20040;-64
2022/02/11 11:54:17;;;;;;;1.48;0.70;;;16.70;62.20;;;;;;5033580;28;20030;-64
2022/02/11 11:56:53;;;;;;;1.70;0.90;;;16.80;62.10;;;;;;5033236;28;20108;-64
2022/02/11 11:59:47;;;;;;;1.05;0.75;;;16.70;62.20;;;;;;5033434;28;20026;-64
2022/02/11 12:02:17;;;;;;;1.00;0.70;;;16.80;62.20;;;;;;5033475;28;20419;-64
2022/02/11 12:04:43;;;;;;;1.00;0.60;;;16.70;62.20;;;;;;5033337;28;20029;-64
2022/02/11 12:07:12;;;;;;;0.57;0.57;;;16.70;62.20;;;;;;5033170;28;20026;-64
2022/02/11 12:09:38;;;;;;;0.73;0.68;;;16.70;62.20;;;;;;5032661;28;20026;-64
2022/02/11 12:12:08;;;;;;;1.27;0.77;;;16.70;62.20;;;;;;5032985;28;20140;-64
2022/02/11 12:14:35;;;;;;;0.70;0.68;;;16.70;62.20;;;;;;5032989;28;20014;-64
2022/02/11 12:17:02;;;;;;;0.93;0.70;;;16.70;62.20;;;;;;5032635;28;20041;-64
2022/02/11 12:19:28;;;;;;;0.90;0.90;;;16.70;62.20;;;;;;5015488;28;20037;-64
2022/02/11 12:21:54;;;;;;;0.85;0.80;;;16.70;62.10;;;;;;5033040;28;20415;-64
2022/02/11 12:29:54;;;;;;;0.73;0.60;;;16.70;62.10;;;;;;5032886;28;20036;-64
2022/02/11 12:32:43;;;;;;;1.13;0.80;;;16.70;62.20;;;;;;5032841;28;20083;-64
2022/02/11 12:35:38;;;;;;;1.10;0.63;;;16.70;62.20;;;;;;5032775;28;20029;-64
2022/02/11 12:38:04;;;;;;;0.77;0.70;;;16.70;62.10;;;;;;5023627;28;20030;-64
2022/02/11 12:40:32;;;;;;;0.82;0.70;;;16.70;62.20;;;;;;5032721;28;20039;-64
2022/02/11 12:42:59;;;;;;;1.27;0.52;;;16.70;62.20;;;;;;4998962;28;20087;-64
2022/02/11 12:45:30;;;;;;;0.70;0.60;;;16.70;62.20;;;;;;5032716;28;20562;-64
2022/02/11 12:47:56;;;;;;;1.33;0.85;;;16.80;62.20;;;;;;5015341;28;20025;-64
2022/02/11 12:50:33;;;;;;;0.80;0.52;;;16.70;62.20;;;;;;5032420;28;20040;-64
2022/02/11 12:52:59;;;;;;;1.20;0.60;;;16.80;62.20;;;;;;5032052;28;20488;-64
2022/02/11 12:55:25;;;;;;;0.60;0.60;;;16.70;62.20;;;;;;5032556;28;20025;-64
2022/02/11 12:57:58;;;;;;;1.55;0.88;;;16.70;62.20;;;;;;5032366;28;20109;-64
2022/02/11 13:00:34;;;;;;;1.60;0.60;;;16.70;62.20;;;;;;5014886;28;20029;-64
2022/02/11 13:03:01;;;;;;;1.13;0.68;;;16.80;62.20;;;;;;5032427;28;20044;-64
2022/02/11 13:05:33;;;;;;;0.88;0.65;;;16.70;62.20;;;;;;5014952;28;20080;-64
2022/02/11 13:08:00;;;;;;;0.50;0.50;;;16.80;62.30;;;;;;5032020;28;20060;-64
2022/02/11 13:10:34;;;;;;;1.17;0.60;;;16.70;62.10;;;;;;5014900;28;20026;-64
2022/02/11 13:13:14;;;;;;;0.68;0.60;;;16.80;62.20;;;;;;5012644;28;20698;-64
2022/02/11 13:15:41;;;;;;;0.57;0.55;;;16.80;62.20;;;;;;5012220;28;20054;-64
2022/02/11 13:18:13;;;;;;;0.77;0.60;;;16.70;62.20;;;;;;5012594;28;20018;-64
2022/02/11 13:20:40;;;;;;;0.70;0.70;;;16.80;62.30;;;;;;4995104;28;20484;-64
2022/02/11 13:23:06;;;;;;;0.60;0.50;;;16.80;62.20;;;;;;5012150;28;20022;-64
2022/02/11 13:25:32;;;;;;;0.93;0.70;;;16.70;62.20;;;;;;4995197;28;20034;-64
2022/02/11 13:28:03;;;;;;;0.85;0.55;;;16.70;62.10;;;;;;5012683;28;20068;-64
2022/02/11 13:30:33;;;;;;;1.30;0.93;;;16.70;62.10;;;;;;5012405;28;20034;-64
2022/02/11 13:33:00;;;;;;;1.33;0.80;;;16.70;62.10;;;;;;5012531;28;20018;-64
2022/02/11 13:35:26;;;;;;;1.45;0.70;;;16.80;62.20;;;;;;5012408;28;20085;-64
2022/02/11 13:37:59;;;;;;;0.82;0.57;;;16.80;62.20;;;;;;5012058;28;20124;-64
2022/02/11 13:40:26;;;;;;;0.50;0.50;;;16.80;62.20;;;;;;4994923;28;20080;-64
2022/02/11 13:42:55;;;;;;;1.17;0.60;;;16.70;62.20;;;;;;5011974;28;20487;-64
2022/02/11 13:45:23;;;;;;;0.80;0.57;;;16.80;62.20;;;;;;5012433;28;20100;-64
2022/02/11 13:48:08;;;;;;;0.98;0.55;;;16.80;62.20;;;;;;5012853;28;20455;-64
2022/02/11 13:50:57;;;;;;;1.15;0.85;;;16.80;62.00;;;;;;5015692;28;20026;-64
2022/02/11 13:53:39;;;;;;;0.70;0.60;;;16.80;62.10;;;;;;5031611;28;20036;-64
2022/02/11 13:56:07;;;;;;;1.07;0.60;;;16.80;62.20;;;;;;5035553;28;20026;-64
2022/02/11 13:58:33;;;;;;;0.50;0.50;;;16.70;62.20;;;;;;5035628;28;20049;-64
2022/02/11 14:01:00;;;;;;;0.60;0.60;;;16.70;62.20;;;;;;5035551;28;20053;-64
2022/02/11 14:03:27;;;;;;;0.95;0.77;;;16.70;62.20;;;;;;5018143;28;20132;-64
2022/02/11 14:06:01;;;;;;;0.50;0.50;;;16.70;62.10;;;;;;5035239;28;20079;-64
2022/02/11 14:08:42;;;;;;;0.88;0.68;;;16.70;62.20;;;;;;5035551;28;20025;-64
2022/02/11 14:11:15;;;;;;;1.17;0.60;;;16.80;62.10;;;;;;5035420;28;20369;-64
2022/02/11 14:13:41;;;;;;;0.80;0.60;;;16.80;62.20;;;;;;5035377;28;20030;-64
2022/02/11 14:16:07;;;;;;;0.85;0.70;;;16.80;62.20;;;;;;5035097;28;20519;-64
2022/02/11 14:18:33;;;;;;;0.82;0.60;;;16.80;62.20;;;;;;5035348;28;20068;-64
2022/02/11 14:20:58;;;;;;;1.10;0.60;;;16.80;62.20;;;;;;5017291;28;20029;-64
2022/02/11 14:23:24;;;;;;;0.73;0.50;;;16.80;62.20;;;;;;5035170;28;20372;-64
2022/02/11 14:25:50;;;;;;;0.90;0.68;;;16.70;62.10;;;;;;5035331;28;20495;-64
2022/02/11 14:28:16;;;;;;;0.85;0.70;;;16.80;62.20;;;;;;5035256;28;20014;-64
2022/02/11 14:30:43;;;;;;;0.80;0.60;;;16.80;62.20;;;;;;5034950;28;20035;-64
2022/02/11 14:33:09;;;;;;;1.23;0.60;;;16.80;62.10;;;;;;5017667;28;20021;-64
2022/02/11 14:35:35;;;;;;;0.60;0.60;;;16.80;62.20;;;;;;5034688;28;20029;-64
2022/02/11 14:38:01;;;;;;;0.85;0.50;;;16.70;62.10;;;;;;5035052;28;20028;-64
2022/02/11 14:40:26;;;;;;;1.30;0.63;;;16.80;62.10;;;;;;5034942;28;20108;-64
2022/02/11 14:42:52;;;;;;;1.38;0.70;;;16.70;62.10;;;;;;5034655;28;20026;-64
2022/02/11 14:45:17;;;;;;;0.95;0.65;;;16.80;62.10;;;;;;5035005;28;20503;-64
2022/02/11 14:47:43;;;;;;;0.65;0.60;;;16.80;62.10;;;;;;5034770;28;20030;-64
2022/02/11 14:50:09;;;;;;;1.08;0.70;;;16.80;62.10;;;;;;5034304;28;20040;-64
2022/02/11 14:52:35;;;;;;;0.77;0.50;;;16.80;62.10;;;;;;5034480;28;20048;-64
2022/02/11 14:55:01;;;;;;;1.48;0.50;;;16.80;62.10;;;;;;5034549;28;20120;-64
2022/02/11 14:57:26;;;;;;;3.10;0.80;;;16.80;62.10;;;;;;5034602;28;20109;-64
2022/02/11 14:59:52;;;;;;;1.05;0.45;;;16.70;62.00;;;;;;5033121;28;20025;-64
2022/02/11 15:02:18;;;;;;;0.40;0.40;;;16.80;62.10;;;;;;5034519;28;20399;-64
2022/02/11 15:04:46;;;;;;;0.90;0.63;;;16.80;62.10;;;;;;5034024;28;20495;-64
2022/02/11 15:07:12;;;;;;;0.77;0.57;;;16.80;62.10;;;;;;5034457;28;20032;-64
2022/02/11 15:09:38;;;;;;;0.63;0.60;;;16.80;62.10;;;;;;5034293;28;20049;-64
2022/02/11 15:12:04;;;;;;;0.95;0.50;;;16.80;62.10;;;;;;5034053;28;20061;-64
2022/02/11 15:14:30;;;;;;;0.98;0.70;;;16.80;62.00;;;;;;5034455;28;20023;-64
2022/02/11 15:16:56;;;;;;;0.63;0.60;;;16.80;62.10;;;;;;5033912;28;20045;-64
2022/02/11 15:19:21;;;;;;;1.33;0.70;;;16.80;62.10;;;;;;5033950;28;20033;-64
2022/02/11 15:21:47;;;;;;;1.67;0.80;;;16.80;62.10;;;;;;5034063;28;20032;-64
2022/02/11 15:24:13;;;;;;;0.80;0.50;;;16.80;62.10;;;;;;5034011;28;20025;-64
2022/02/11 15:26:39;;;;;;;1.30;0.70;;;16.80;62.10;;;;;;5034088;28;20022;-64
2022/02/11 15:29:05;;;;;;;0.65;0.60;;;16.80;62.00;;;;;;5033915;28;20040;-64
2022/02/11 15:31:30;;;;;;;0.75;0.50;;;16.80;62.10;;;;;;5033738;28;20022;-64
2022/02/11 15:33:56;;;;;;;0.75;0.50;;;16.80;62.00;;;;;;5033500;28;20101;-64
2022/02/11 15:36:22;;;;;;;0.75;0.50;;;16.80;62.10;;;;;;5033861;28;20022;-64
2022/02/11 15:38:47;;;;;;;0.82;0.60;;;16.80;62.00;;;;;;5033667;28;20032;-64
2022/02/11 15:41:14;;;;;;;0.52;0.47;;;16.80;62.00;;;;;;5033990;28;20027;-64
2022/02/11 15:43:39;;;;;;;1.40;0.55;;;16.80;62.10;;;;;;5033498;28;20104;-64
2022/02/11 15:46:06;;;;;;;0.80;0.60;;;16.80;62.00;;;;;;5033286;28;20100;-64
2022/02/11 15:48:34;;;;;;;1.52;0.57;;;16.80;62.10;;;;;;5033492;28;20132;-64
2022/02/11 15:51:04;;;;;;;0.88;0.70;;;16.80;62.00;;;;;;5016313;28;20484;-64
2022/02/11 15:53:30;;;;;;;0.52;0.50;;;16.80;62.10;;;;;;5016498;28;20016;-64
2022/02/11 15:55:56;;;;;;;1.80;0.80;;;16.80;62.00;;;;;;5033407;28;20096;-64
2022/02/11 15:58:22;;;;;;;0.50;0.43;;;16.80;62.10;;;;;;5033297;28;20021;-64
2022/02/11 16:00:47;;;;;;;0.57;0.50;;;16.80;62.00;;;;;;5033029;28;20083;-64
2022/02/11 16:03:13;;;;;;;0.60;0.60;;;16.80;62.00;;;;;;5033386;28;20108;-64
2022/02/11 16:05:39;;;;;;;0.50;0.50;;;16.80;62.00;;;;;;5033384;28;20032;-64
2022/02/11 16:08:04;;;;;;;0.82;0.50;;;16.80;62.00;;;;;;5033107;28;20036;-64
2022/02/11 16:10:30;;;;;;;0.70;0.70;;;16.80;62.00;;;;;;5032776;28;20029;-64
2022/02/11 16:12:56;;;;;;;0.98;0.60;;;16.80;62.00;;;;;;5032886;28;20025;-64
2022/02/11 16:15:21;;;;;;;0.60;0.60;;;16.80;62.00;;;;;;5032744;28;20045;-64
2022/02/11 16:18:00;;;;;;;0.60;0.50;;;16.80;62.00;;;;;;5033053;28;20025;-64
2022/02/11 16:20:39;;;;;;;0.88;0.63;;;16.80;62.00;;;;;;5032924;28;20052;-64
2022/02/11 16:23:07;;;;;;;0.68;0.65;;;16.80;62.00;;;;;;5015615;28;20029;-64
2022/02/11 16:25:35;;;;;;;0.40;0.40;;;16.80;62.00;;;;;;5015330;28;20021;-64
2022/02/11 16:28:01;;;;;;;1.75;0.50;;;16.80;62.00;;;;;;5015376;28;20462;-64
2022/02/11 16:30:27;;;;;;;0.73;0.40;;;16.80;62.00;;;;;;5015019;28;20025;-64
2022/02/11 16:32:52;;;;;;;0.68;0.45;;;16.80;62.00;;;;;;5032624;28;20030;-64
2022/02/11 16:35:18;;;;;;;1.45;0.70;;;16.80;62.00;;;;;;5033037;28;20072;-64
2022/02/11 16:37:44;;;;;;;0.93;0.55;;;16.80;62.00;;;;;;5032599;28;20080;-64
2022/02/11 16:40:10;;;;;;;0.93;0.50;;;16.80;62.00;;;;;;5032707;28;20018;-64
2022/02/11 16:42:36;;;;;;;0.70;0.70;;;16.80;62.00;;;;;;5032633;28;20030;-64
2022/02/11 16:45:03;;;;;;;0.30;0.30;;;16.80;62.00;;;;;;5014906;28;20032;-64
2022/02/11 16:47:30;;;;;;;0.73;0.57;;;16.80;63.00;;;;;;5032410;28;20500;-64
2022/02/11 16:49:56;;;;;;;0.82;0.50;;;16.80;62.00;;;;;;5032387;28;20507;-64
2022/02/11 16:52:21;;;;;;;0.57;0.50;;;16.80;62.00;;;;;;5032188;28;20033;-64
2022/02/11 16:54:47;;;;;;;0.68;0.60;;;16.80;62.00;;;;;;5032034;28;20022;-63